KFRG

Republic Airport

Farmingdale, New York, USA
METAR KFRG 101453Z 03016G21KT 10SM CLR 02/M07 A3013 RMK AO2 SLP205 T00221067 53012
Observed Flight Rules
Dec-10 @ 14:53 UTC (24 minutes ago) Visual Flight Rules
Wind Visibility Clouds
30° at 16 knots
 Gusting to 21 knots
10 miles
  • Clear skies
Temperatures Readings
Current 2°C / 36°F
Dewpoint -7°C / 19°F
Humidity 52%
Altimeter 30.13" Hg
Pressure 1020.5 hPa
Elevation 21
METAR KFRG 101453Z 03016G21KT 10SM CLR 02/M07 A3013 RMK AO2 SLP205 T00221067 53012
Observed Flight Rules
Dec-10 @ 14:53 UTC
(24 minutes ago)
VFR
Wind Visibility
30° at 16 knots
 Gusting to 21 knots
10 miles
Clouds
  • Clear skies
Temperature Dewpoint
2°C / 36°F -7°C / 19°F
Humidity Altimeter Pressure
52% 30.13" Hg 1020.5 hPa